sensor_id;sensor_type;location;lat;lon;timestamp;P1;durP1;ratioP1;P2;durP2;ratioP2
66559;SDS011;53413;49.878;8.142;2022-12-18T00:01:21;48.40;;;13.48;;
66559;SDS011;53413;49.878;8.142;2022-12-18T00:03:51;54.00;;;14.02;;
66559;SDS011;53413;49.878;8.142;2022-12-18T00:06:17;51.20;;;14.07;;
66559;SDS011;53413;49.878;8.142;2022-12-18T00:08:43;50.80;;;13.68;;
66559;SDS011;53413;49.878;8.142;2022-12-18T00:11:14;46.13;;;13.00;;
66559;SDS011;53413;49.878;8.142;2022-12-18T00:13:40;52.00;;;13.63;;
66559;SDS011;53413;49.878;8.142;2022-12-18T00:16:07;46.15;;;12.65;;
66559;SDS011;53413;49.878;8.142;2022-12-18T00:18:35;62.25;;;13.15;;
66559;SDS011;53413;49.878;8.142;2022-12-18T00:21:01;53.90;;;14.63;;
66559;SDS011;53413;49.878;8.142;2022-12-18T00:23:28;65.10;;;14.10;;
66559;SDS011;53413;49.878;8.142;2022-12-18T00:25:55;47.72;;;12.85;;
66559;SDS011;53413;49.878;8.142;2022-12-18T00:28:24;51.60;;;13.67;;
66559;SDS011;53413;49.878;8.142;2022-12-18T00:30:49;49.60;;;13.53;;
66559;SDS011;53413;49.878;8.142;2022-12-18T00:33:16;55.78;;;13.95;;
66559;SDS011;53413;49.878;8.142;2022-12-18T00:35:42;54.58;;;15.05;;
66559;SDS011;53413;49.878;8.142;2022-12-18T00:38:07;52.60;;;13.83;;
66559;SDS011;53413;49.878;8.142;2022-12-18T00:40:32;57.93;;;13.60;;
66559;SDS011;53413;49.878;8.142;2022-12-18T00:42:58;56.93;;;15.07;;
66559;SDS011;53413;49.878;8.142;2022-12-18T00:45:24;53.73;;;13.93;;
66559;SDS011;53413;49.878;8.142;2022-12-18T00:47:50;53.67;;;14.50;;
66559;SDS011;53413;49.878;8.142;2022-12-18T00:50:15;55.83;;;13.70;;
66559;SDS011;53413;49.878;8.142;2022-12-18T00:52:41;42.40;;;12.55;;
66559;SDS011;53413;49.878;8.142;2022-12-18T00:55:06;48.13;;;12.13;;
66559;SDS011;53413;49.878;8.142;2022-12-18T00:57:32;46.23;;;13.43;;
66559;SDS011;53413;49.878;8.142;2022-12-18T00:59:58;49.70;;;13.23;;
66559;SDS011;53413;49.878;8.142;2022-12-18T01:02:23;47.83;;;12.03;;
66559;SDS011;53413;49.878;8.142;2022-12-18T01:04:48;52.90;;;12.70;;
66559;SDS011;53413;49.878;8.142;2022-12-18T01:07:14;46.50;;;12.80;;
66559;SDS011;53413;49.878;8.142;2022-12-18T01:09:39;53.23;;;14.03;;
66559;SDS011;53413;49.878;8.142;2022-12-18T01:12:05;47.10;;;13.13;;
66559;SDS011;53413;49.878;8.142;2022-12-18T01:14:30;53.22;;;13.00;;
66559;SDS011;53413;49.878;8.142;2022-12-18T01:16:56;45.27;;;12.20;;
66559;SDS011;53413;49.878;8.142;2022-12-18T01:19:21;48.03;;;12.17;;
66559;SDS011;53413;49.878;8.142;2022-12-18T01:21:46;49.17;;;13.23;;
66559;SDS011;53413;49.878;8.142;2022-12-18T01:24:12;52.60;;;12.77;;
66559;SDS011;53413;49.878;8.142;2022-12-18T01:26:37;46.90;;;12.30;;
66559;SDS011;53413;49.878;8.142;2022-12-18T01:29:02;54.77;;;13.30;;
66559;SDS011;53413;49.878;8.142;2022-12-18T01:31:29;48.10;;;13.90;;
66559;SDS011;53413;49.878;8.142;2022-12-18T01:33:56;50.57;;;13.70;;
66559;SDS011;53413;49.878;8.142;2022-12-18T01:36:23;55.22;;;14.30;;
66559;SDS011;53413;49.878;8.142;2022-12-18T01:38:50;62.08;;;13.95;;
66559;SDS011;53413;49.878;8.142;2022-12-18T01:41:16;54.75;;;14.45;;
66559;SDS011;53413;49.878;8.142;2022-12-18T01:46:09;55.20;;;14.20;;
66559;SDS011;53413;49.878;8.142;2022-12-18T01:48:34;57.23;;;14.73;;
66559;SDS011;53413;49.878;8.142;2022-12-18T01:51:00;55.17;;;13.93;;
66559;SDS011;53413;49.878;8.142;2022-12-18T01:53:26;53.97;;;14.80;;
66559;SDS011;53413;49.878;8.142;2022-12-18T01:55:52;51.17;;;13.60;;
66559;SDS011;53413;49.878;8.142;2022-12-18T01:58:20;49.85;;;12.38;;
66559;SDS011;53413;49.878;8.142;2022-12-18T02:00:54;57.10;;;13.63;;
66559;SDS011;53413;49.878;8.142;2022-12-18T02:03:20;54.28;;;14.75;;
66559;SDS011;53413;49.878;8.142;2022-12-18T02:16:38;53.70;;;13.95;;
66559;SDS011;53413;49.878;8.142;2022-12-18T02:19:11;56.75;;;13.98;;
66559;SDS011;53413;49.878;8.142;2022-12-18T02:27:09;46.27;;;13.27;;
66559;SDS011;53413;49.878;8.142;2022-12-18T02:32:05;49.58;;;12.93;;
66559;SDS011;53413;49.878;8.142;2022-12-18T02:34:37;47.00;;;12.75;;
66559;SDS011;53413;49.878;8.142;2022-12-18T02:37:04;50.30;;;13.07;;
66559;SDS011;53413;49.878;8.142;2022-12-18T02:39:34;47.37;;;12.67;;
66559;SDS011;53413;49.878;8.142;2022-12-18T02:42:02;57.70;;;13.15;;
66559;SDS011;53413;49.878;8.142;2022-12-18T02:44:32;49.35;;;13.45;;
66559;SDS011;53413;49.878;8.142;2022-12-18T02:46:59;41.17;;;12.57;;
66559;SDS011;53413;49.878;8.142;2022-12-18T02:52:05;53.05;;;13.38;;
66559;SDS011;53413;49.878;8.142;2022-12-18T03:00:25;50.53;;;12.93;;
66559;SDS011;53413;49.878;8.142;2022-12-18T03:03:16;47.28;;;12.45;;
66559;SDS011;53413;49.878;8.142;2022-12-18T03:05:53;46.08;;;12.55;;
66559;SDS011;53413;49.878;8.142;2022-12-18T03:08:28;51.53;;;12.97;;
66559;SDS011;53413;49.878;8.142;2022-12-18T03:13:30;45.95;;;12.32;;
66559;SDS011;53413;49.878;8.142;2022-12-18T03:16:00;41.20;;;11.57;;
66559;SDS011;53413;49.878;8.142;2022-12-18T03:21:00;42.37;;;11.97;;
66559;SDS011;53413;49.878;8.142;2022-12-18T03:23:31;43.55;;;11.90;;
66559;SDS011;53413;49.878;8.142;2022-12-18T03:26:02;44.55;;;11.45;;
66559;SDS011;53413;49.878;8.142;2022-12-18T03:28:32;46.80;;;12.30;;
66559;SDS011;53413;49.878;8.142;2022-12-18T03:31:01;42.72;;;12.32;;
66559;SDS011;53413;49.878;8.142;2022-12-18T03:33:30;48.87;;;12.67;;
66559;SDS011;53413;49.878;8.142;2022-12-18T03:36:03;55.53;;;13.07;;
66559;SDS011;53413;49.878;8.142;2022-12-18T03:38:29;58.38;;;13.68;;
66559;SDS011;53413;49.878;8.142;2022-12-18T03:43:37;46.40;;;11.27;;
66559;SDS011;53413;49.878;8.142;2022-12-18T03:46:25;44.35;;;11.32;;
66559;SDS011;53413;49.878;8.142;2022-12-18T03:49:02;41.58;;;11.23;;
66559;SDS011;53413;49.878;8.142;2022-12-18T03:51:42;40.28;;;11.38;;
66559;SDS011;53413;49.878;8.142;2022-12-18T03:54:22;39.88;;;11.68;;
66559;SDS011;53413;49.878;8.142;2022-12-18T03:56:53;46.03;;;12.10;;
66559;SDS011;53413;49.878;8.142;2022-12-18T03:59:23;45.25;;;11.23;;
66559;SDS011;53413;49.878;8.142;2022-12-18T04:01:51;41.80;;;11.52;;
66559;SDS011;53413;49.878;8.142;2022-12-18T04:04:19;43.13;;;12.32;;
66559;SDS011;53413;49.878;8.142;2022-12-18T04:06:47;42.08;;;11.85;;
66559;SDS011;53413;49.878;8.142;2022-12-18T04:09:14;45.23;;;11.20;;
66559;SDS011;53413;49.878;8.142;2022-12-18T04:11:40;42.22;;;11.57;;
66559;SDS011;53413;49.878;8.142;2022-12-18T04:14:08;44.72;;;11.55;;
66559;SDS011;53413;49.878;8.142;2022-12-18T04:16:34;43.42;;;11.88;;
66559;SDS011;53413;49.878;8.142;2022-12-18T04:19:00;40.57;;;11.60;;
66559;SDS011;53413;49.878;8.142;2022-12-18T04:21:25;40.20;;;11.47;;
66559;SDS011;53413;49.878;8.142;2022-12-18T04:23:50;43.87;;;11.97;;
66559;SDS011;53413;49.878;8.142;2022-12-18T04:26:16;42.03;;;11.03;;
66559;SDS011;53413;49.878;8.142;2022-12-18T04:28:41;43.90;;;11.10;;
66559;SDS011;53413;49.878;8.142;2022-12-18T04:31:06;35.37;;;10.70;;
66559;SDS011;53413;49.878;8.142;2022-12-18T04:33:32;40.72;;;11.73;;
66559;SDS011;53413;49.878;8.142;2022-12-18T04:35:57;38.20;;;10.90;;
66559;SDS011;53413;49.878;8.142;2022-12-18T04:38:23;35.43;;;10.03;;
66559;SDS011;53413;49.878;8.142;2022-12-18T04:40:48;41.23;;;10.73;;
66559;SDS011;53413;49.878;8.142;2022-12-18T04:43:13;34.27;;;9.93;;
66559;SDS011;53413;49.878;8.142;2022-12-18T04:45:39;41.70;;;10.50;;
66559;SDS011;53413;49.878;8.142;2022-12-18T04:48:04;36.07;;;9.80;;
66559;SDS011;53413;49.878;8.142;2022-12-18T04:50:30;31.92;;;9.82;;
66559;SDS011;53413;49.878;8.142;2022-12-18T04:52:56;41.10;;;10.87;;
66559;SDS011;53413;49.878;8.142;2022-12-18T04:55:24;40.03;;;10.93;;
66559;SDS011;53413;49.878;8.142;2022-12-18T04:57:50;37.40;;;10.60;;
66559;SDS011;53413;49.878;8.142;2022-12-18T05:00:15;37.72;;;9.65;;
66559;SDS011;53413;49.878;8.142;2022-12-18T05:02:40;40.23;;;11.07;;
66559;SDS011;53413;49.878;8.142;2022-12-18T05:05:06;37.27;;;10.43;;
66559;SDS011;53413;49.878;8.142;2022-12-18T05:07:33;42.92;;;10.77;;
66559;SDS011;53413;49.878;8.142;2022-12-18T05:09:58;39.80;;;10.93;;
66559;SDS011;53413;49.878;8.142;2022-12-18T05:12:23;43.47;;;11.00;;
66559;SDS011;53413;49.878;8.142;2022-12-18T05:14:49;40.27;;;11.40;;
66559;SDS011;53413;49.878;8.142;2022-12-18T05:17:14;36.70;;;10.80;;
66559;SDS011;53413;49.878;8.142;2022-12-18T05:19:39;44.23;;;11.03;;
66559;SDS011;53413;49.878;8.142;2022-12-18T05:22:08;36.35;;;9.82;;
66559;SDS011;53413;49.878;8.142;2022-12-18T05:24:33;38.38;;;10.13;;
66559;SDS011;53413;49.878;8.142;2022-12-18T05:26:59;35.53;;;10.30;;
66559;SDS011;53413;49.878;8.142;2022-12-18T05:29:24;36.83;;;10.40;;
66559;SDS011;53413;49.878;8.142;2022-12-18T05:31:50;36.07;;;10.70;;
66559;SDS011;53413;49.878;8.142;2022-12-18T05:34:15;34.87;;;10.17;;
66559;SDS011;53413;49.878;8.142;2022-12-18T05:36:40;30.73;;;9.53;;
66559;SDS011;53413;49.878;8.142;2022-12-18T05:39:06;32.93;;;9.80;;
66559;SDS011;53413;49.878;8.142;2022-12-18T05:41:32;35.50;;;10.27;;
66559;SDS011;53413;49.878;8.142;2022-12-18T05:43:58;38.92;;;11.55;;
66559;SDS011;53413;49.878;8.142;2022-12-18T05:46:23;36.77;;;10.97;;
66559;SDS011;53413;49.878;8.142;2022-12-18T05:48:49;37.33;;;11.10;;
66559;SDS011;53413;49.878;8.142;2022-12-18T05:51:16;38.78;;;10.63;;
66559;SDS011;53413;49.878;8.142;2022-12-18T05:53:43;35.05;;;10.05;;
66559;SDS011;53413;49.878;8.142;2022-12-18T05:56:11;38.50;;;10.30;;
66559;SDS011;53413;49.878;8.142;2022-12-18T05:58:41;31.75;;;9.43;;
66559;SDS011;53413;49.878;8.142;2022-12-18T06:01:16;38.35;;;10.73;;
66559;SDS011;53413;49.878;8.142;2022-12-18T06:03:44;39.13;;;10.70;;
66559;SDS011;53413;49.878;8.142;2022-12-18T06:06:13;39.20;;;10.25;;
66559;SDS011;53413;49.878;8.142;2022-12-18T06:08:40;37.97;;;10.52;;
66559;SDS011;53413;49.878;8.142;2022-12-18T06:11:05;35.03;;;10.37;;
66559;SDS011;53413;49.878;8.142;2022-12-18T06:13:31;40.37;;;10.13;;
66559;SDS011;53413;49.878;8.142;2022-12-18T06:15:56;37.10;;;9.87;;
66559;SDS011;53413;49.878;8.142;2022-12-18T06:18:21;34.73;;;9.93;;
66559;SDS011;53413;49.878;8.142;2022-12-18T06:20:54;33.93;;;10.17;;
66559;SDS011;53413;49.878;8.142;2022-12-18T06:23:20;33.25;;;10.65;;
66559;SDS011;53413;49.878;8.142;2022-12-18T06:25:46;36.33;;;10.07;;
66559;SDS011;53413;49.878;8.142;2022-12-18T06:28:11;33.33;;;9.73;;
66559;SDS011;53413;49.878;8.142;2022-12-18T06:30:36;32.50;;;10.20;;
66559;SDS011;53413;49.878;8.142;2022-12-18T06:33:01;35.53;;;10.60;;
66559;SDS011;53413;49.878;8.142;2022-12-18T06:35:27;38.07;;;10.70;;
66559;SDS011;53413;49.878;8.142;2022-12-18T06:37:52;36.08;;;9.82;;
66559;SDS011;53413;49.878;8.142;2022-12-18T06:40:18;35.07;;;9.73;;
66559;SDS011;53413;49.878;8.142;2022-12-18T06:42:43;33.80;;;10.00;;
66559;SDS011;53413;49.878;8.142;2022-12-18T06:45:08;36.17;;;9.93;;
66559;SDS011;53413;49.878;8.142;2022-12-18T06:47:34;34.63;;;10.00;;
66559;SDS011;53413;49.878;8.142;2022-12-18T06:49:59;33.90;;;9.63;;
66559;SDS011;53413;49.878;8.142;2022-12-18T06:52:25;29.87;;;8.83;;
66559;SDS011;53413;49.878;8.142;2022-12-18T06:54:50;36.60;;;10.43;;
66559;SDS011;53413;49.878;8.142;2022-12-18T06:57:15;28.60;;;9.00;;
66559;SDS011;53413;49.878;8.142;2022-12-18T06:59:41;32.37;;;9.00;;
66559;SDS011;53413;49.878;8.142;2022-12-18T07:02:09;33.40;;;8.93;;
66559;SDS011;53413;49.878;8.142;2022-12-18T07:04:36;29.33;;;9.35;;
66559;SDS011;53413;49.878;8.142;2022-12-18T07:07:02;32.43;;;9.17;;
66559;SDS011;53413;49.878;8.142;2022-12-18T07:09:27;37.23;;;10.10;;
66559;SDS011;53413;49.878;8.142;2022-12-18T07:11:52;37.35;;;10.68;;
66559;SDS011;53413;49.878;8.142;2022-12-18T07:14:18;33.72;;;10.05;;
66559;SDS011;53413;49.878;8.142;2022-12-18T07:16:43;36.97;;;10.67;;
66559;SDS011;53413;49.878;8.142;2022-12-18T07:19:08;37.17;;;10.73;;
66559;SDS011;53413;49.878;8.142;2022-12-18T07:21:34;35.00;;;10.40;;
66559;SDS011;53413;49.878;8.142;2022-12-18T07:23:59;39.40;;;10.27;;
66559;SDS011;53413;49.878;8.142;2022-12-18T07:26:25;37.23;;;10.63;;
66559;SDS011;53413;49.878;8.142;2022-12-18T07:28:54;36.92;;;10.20;;
66559;SDS011;53413;49.878;8.142;2022-12-18T07:31:21;41.13;;;11.05;;
66559;SDS011;53413;49.878;8.142;2022-12-18T07:33:47;44.33;;;11.40;;
66559;SDS011;53413;49.878;8.142;2022-12-18T07:36:13;34.40;;;10.57;;
66559;SDS011;53413;49.878;8.142;2022-12-18T07:38:39;37.70;;;10.57;;
66559;SDS011;53413;49.878;8.142;2022-12-18T07:41:05;35.65;;;10.20;;
66559;SDS011;53413;49.878;8.142;2022-12-18T07:43:35;31.67;;;9.43;;
66559;SDS011;53413;49.878;8.142;2022-12-18T07:46:01;33.55;;;9.68;;
66559;SDS011;53413;49.878;8.142;2022-12-18T07:48:27;33.33;;;9.82;;
66559;SDS011;53413;49.878;8.142;2022-12-18T07:50:53;33.77;;;10.63;;
66559;SDS011;53413;49.878;8.142;2022-12-18T07:53:22;32.58;;;10.13;;
66559;SDS011;53413;49.878;8.142;2022-12-18T07:55:47;33.70;;;10.20;;
66559;SDS011;53413;49.878;8.142;2022-12-18T07:58:13;36.57;;;10.50;;
66559;SDS011;53413;49.878;8.142;2022-12-18T08:00:38;35.33;;;11.13;;
66559;SDS011;53413;49.878;8.142;2022-12-18T08:03:03;32.00;;;11.00;;
66559;SDS011;53413;49.878;8.142;2022-12-18T08:05:29;31.23;;;10.60;;
66559;SDS011;53413;49.878;8.142;2022-12-18T08:07:54;35.30;;;10.32;;
66559;SDS011;53413;49.878;8.142;2022-12-18T08:10:20;37.23;;;10.50;;
66559;SDS011;53413;49.878;8.142;2022-12-18T08:12:48;39.63;;;10.98;;
66559;SDS011;53413;49.878;8.142;2022-12-18T08:15:14;37.53;;;11.63;;
66559;SDS011;53413;49.878;8.142;2022-12-18T08:17:39;42.20;;;16.17;;
66559;SDS011;53413;49.878;8.142;2022-12-18T08:20:05;46.03;;;14.97;;
66559;SDS011;53413;49.878;8.142;2022-12-18T08:22:33;48.97;;;16.10;;
66559;SDS011;53413;49.878;8.142;2022-12-18T08:24:59;50.17;;;15.50;;
66559;SDS011;53413;49.878;8.142;2022-12-18T08:27:24;56.20;;;16.13;;
66559;SDS011;53413;49.878;8.142;2022-12-18T08:29:50;55.83;;;17.93;;
66559;SDS011;53413;49.878;8.142;2022-12-18T08:32:15;54.17;;;19.37;;
66559;SDS011;53413;49.878;8.142;2022-12-18T08:34:40;34.53;;;12.55;;
66559;SDS011;53413;49.878;8.142;2022-12-18T08:37:06;37.93;;;12.73;;
66559;SDS011;53413;49.878;8.142;2022-12-18T08:39:31;34.50;;;12.23;;
66559;SDS011;53413;49.878;8.142;2022-12-18T08:41:56;32.87;;;12.47;;
66559;SDS011;53413;49.878;8.142;2022-12-18T08:44:40;34.67;;;13.30;;
66559;SDS011;53413;49.878;8.142;2022-12-18T08:47:06;37.70;;;14.40;;
66559;SDS011;53413;49.878;8.142;2022-12-18T08:49:33;36.10;;;13.75;;
66559;SDS011;53413;49.878;8.142;2022-12-18T08:51:59;35.03;;;14.30;;
66559;SDS011;53413;49.878;8.142;2022-12-18T08:54:24;38.00;;;13.67;;
66559;SDS011;53413;49.878;8.142;2022-12-18T08:56:50;38.15;;;15.30;;
66559;SDS011;53413;49.878;8.142;2022-12-18T08:59:16;38.47;;;15.52;;
66559;SDS011;53413;49.878;8.142;2022-12-18T09:01:42;45.22;;;18.73;;
66559;SDS011;53413;49.878;8.142;2022-12-18T09:04:08;51.90;;;21.50;;
66559;SDS011;53413;49.878;8.142;2022-12-18T09:06:34;57.42;;;25.05;;
66559;SDS011;53413;49.878;8.142;2022-12-18T09:09:00;51.10;;;22.15;;
66559;SDS011;53413;49.878;8.142;2022-12-18T09:11:26;56.13;;;23.83;;
66559;SDS011;53413;49.878;8.142;2022-12-18T09:13:53;58.03;;;23.15;;
66559;SDS011;53413;49.878;8.142;2022-12-18T09:16:19;47.78;;;20.17;;
66559;SDS011;53413;49.878;8.142;2022-12-18T09:18:45;47.33;;;20.17;;
66559;SDS011;53413;49.878;8.142;2022-12-18T09:21:12;51.35;;;23.88;;
66559;SDS011;53413;49.878;8.142;2022-12-18T09:23:43;82.22;;;34.72;;
66559;SDS011;53413;49.878;8.142;2022-12-18T09:26:09;50.60;;;22.83;;
66559;SDS011;53413;49.878;8.142;2022-12-18T09:28:35;40.40;;;18.27;;
66559;SDS011;53413;49.878;8.142;2022-12-18T09:31:03;42.13;;;17.20;;
66559;SDS011;53413;49.878;8.142;2022-12-18T09:33:33;39.05;;;16.02;;
66559;SDS011;53413;49.878;8.142;2022-12-18T09:36:00;42.03;;;16.65;;
66559;SDS011;53413;49.878;8.142;2022-12-18T09:38:30;37.47;;;15.70;;
66559;SDS011;53413;49.878;8.142;2022-12-18T09:40:59;37.87;;;14.60;;
66559;SDS011;53413;49.878;8.142;2022-12-18T09:43:34;38.42;;;14.90;;
66559;SDS011;53413;49.878;8.142;2022-12-18T09:46:07;39.33;;;16.00;;
66559;SDS011;53413;49.878;8.142;2022-12-18T09:48:36;41.72;;;15.27;;
66559;SDS011;53413;49.878;8.142;2022-12-18T09:51:08;38.25;;;15.32;;
66559;SDS011;53413;49.878;8.142;2022-12-18T09:53:50;37.90;;;14.57;;
66559;SDS011;53413;49.878;8.142;2022-12-18T09:56:20;40.45;;;15.52;;
66559;SDS011;53413;49.878;8.142;2022-12-18T10:01:26;42.63;;;15.75;;
66559;SDS011;53413;49.878;8.142;2022-12-18T10:03:53;42.67;;;15.90;;
66559;SDS011;53413;49.878;8.142;2022-12-18T10:14:27;45.50;;;17.42;;
66559;SDS011;53413;49.878;8.142;2022-12-18T10:19:45;46.83;;;16.80;;
66559;SDS011;53413;49.878;8.142;2022-12-18T10:24:53;49.88;;;19.08;;
66559;SDS011;53413;49.878;8.142;2022-12-18T10:27:25;47.80;;;18.30;;
66559;SDS011;53413;49.878;8.142;2022-12-18T10:29:51;50.08;;;18.65;;
66559;SDS011;53413;49.878;8.142;2022-12-18T10:32:28;52.77;;;18.87;;
66559;SDS011;53413;49.878;8.142;2022-12-18T10:34:56;47.83;;;18.98;;
66559;SDS011;53413;49.878;8.142;2022-12-18T10:37:26;51.67;;;19.30;;
66559;SDS011;53413;49.878;8.142;2022-12-18T10:40:10;49.22;;;17.92;;
66559;SDS011;53413;49.878;8.142;2022-12-18T10:42:38;42.05;;;16.10;;
66559;SDS011;53413;49.878;8.142;2022-12-18T10:45:14;45.87;;;17.27;;
66559;SDS011;53413;49.878;8.142;2022-12-18T10:47:42;49.95;;;18.45;;
66559;SDS011;53413;49.878;8.142;2022-12-18T10:50:18;49.45;;;17.10;;
66559;SDS011;53413;49.878;8.142;2022-12-18T10:52:52;44.88;;;16.80;;
66559;SDS011;53413;49.878;8.142;2022-12-18T10:55:22;46.97;;;17.20;;
66559;SDS011;53413;49.878;8.142;2022-12-18T10:57:49;43.80;;;17.33;;
66559;SDS011;53413;49.878;8.142;2022-12-18T11:02:50;44.58;;;16.75;;
66559;SDS011;53413;49.878;8.142;2022-12-18T11:05:23;44.92;;;16.88;;
66559;SDS011;53413;49.878;8.142;2022-12-18T11:07:52;46.10;;;16.98;;
66559;SDS011;53413;49.878;8.142;2022-12-18T11:10:22;46.83;;;16.53;;
66559;SDS011;53413;49.878;8.142;2022-12-18T11:12:53;52.55;;;18.38;;
66559;SDS011;53413;49.878;8.142;2022-12-18T11:15:24;52.47;;;18.23;;
66559;SDS011;53413;49.878;8.142;2022-12-18T11:17:54;47.67;;;17.85;;
66559;SDS011;53413;49.878;8.142;2022-12-18T11:20:32;52.20;;;19.20;;
66559;SDS011;53413;49.878;8.142;2022-12-18T11:23:00;44.88;;;17.38;;
66559;SDS011;53413;49.878;8.142;2022-12-18T11:25:31;47.03;;;18.02;;
66559;SDS011;53413;49.878;8.142;2022-12-18T11:27:59;45.28;;;16.70;;
66559;SDS011;53413;49.878;8.142;2022-12-18T11:30:33;53.15;;;20.88;;
66559;SDS011;53413;49.878;8.142;2022-12-18T11:33:06;48.70;;;17.57;;
66559;SDS011;53413;49.878;8.142;2022-12-18T11:40:55;45.17;;;16.13;;
66559;SDS011;53413;49.878;8.142;2022-12-18T11:43:45;47.35;;;17.10;;
66559;SDS011;53413;49.878;8.142;2022-12-18T11:49:23;47.55;;;16.77;;
66559;SDS011;53413;49.878;8.142;2022-12-18T11:51:55;45.72;;;17.35;;
66559;SDS011;53413;49.878;8.142;2022-12-18T11:54:27;51.13;;;17.95;;
66559;SDS011;53413;49.878;8.142;2022-12-18T11:56:57;43.73;;;16.50;;
66559;SDS011;53413;49.878;8.142;2022-12-18T12:10:32;50.70;;;17.67;;
66559;SDS011;53413;49.878;8.142;2022-12-18T12:14:06;47.85;;;17.58;;
66559;SDS011;53413;49.878;8.142;2022-12-18T12:16:29;49.77;;;18.60;;
66559;SDS011;53413;49.878;8.142;2022-12-18T12:21:55;49.08;;;18.02;;
66559;SDS011;53413;49.878;8.142;2022-12-18T12:33:56;47.10;;;15.38;;
66559;SDS011;53413;49.878;8.142;2022-12-18T12:39:15;50.60;;;18.30;;
66559;SDS011;53413;49.878;8.142;2022-12-18T12:41:44;52.33;;;17.67;;
66559;SDS011;53413;49.878;8.142;2022-12-18T12:44:40;48.97;;;17.03;;
66559;SDS011;53413;49.878;8.142;2022-12-18T12:47:16;55.40;;;16.98;;
66559;SDS011;53413;49.878;8.142;2022-12-18T12:49:47;50.55;;;17.42;;
66559;SDS011;53413;49.878;8.142;2022-12-18T12:52:15;48.65;;;17.10;;
66559;SDS011;53413;49.878;8.142;2022-12-18T12:54:45;51.38;;;18.42;;
66559;SDS011;53413;49.878;8.142;2022-12-18T12:57:16;53.47;;;18.17;;
66559;SDS011;53413;49.878;8.142;2022-12-18T12:59:50;50.90;;;18.27;;
66559;SDS011;53413;49.878;8.142;2022-12-18T13:02:42;52.30;;;17.85;;
66559;SDS011;53413;49.878;8.142;2022-12-18T13:08:09;56.47;;;19.20;;
66559;SDS011;53413;49.878;8.142;2022-12-18T13:10:39;58.60;;;19.93;;
66559;SDS011;53413;49.878;8.142;2022-12-18T13:13:10;56.38;;;19.08;;
66559;SDS011;53413;49.878;8.142;2022-12-18T13:15:38;55.78;;;19.17;;
66559;SDS011;53413;49.878;8.142;2022-12-18T13:23:17;52.80;;;18.33;;
66559;SDS011;53413;49.878;8.142;2022-12-18T13:45:49;52.72;;;18.60;;
66559;SDS011;53413;49.878;8.142;2022-12-18T13:48:19;55.70;;;18.52;;
66559;SDS011;53413;49.878;8.142;2022-12-18T13:50:49;51.20;;;18.50;;
66559;SDS011;53413;49.878;8.142;2022-12-18T13:53:20;51.33;;;16.67;;
66559;SDS011;53413;49.878;8.142;2022-12-18T13:55:49;54.08;;;18.60;;
66559;SDS011;53413;49.878;8.142;2022-12-18T13:58:15;51.13;;;18.38;;
66559;SDS011;53413;49.878;8.142;2022-12-18T14:00:41;52.43;;;17.03;;
66559;SDS011;53413;49.878;8.142;2022-12-18T14:05:52;57.88;;;20.05;;
66559;SDS011;53413;49.878;8.142;2022-12-18T14:08:19;53.27;;;17.00;;
66559;SDS011;53413;49.878;8.142;2022-12-18T14:10:46;54.60;;;17.60;;
66559;SDS011;53413;49.878;8.142;2022-12-18T14:13:46;53.58;;;17.75;;
66559;SDS011;53413;49.878;8.142;2022-12-18T14:16:06;52.38;;;17.95;;
66559;SDS011;53413;49.878;8.142;2022-12-18T14:26:33;61.00;;;18.83;;
66559;SDS011;53413;49.878;8.142;2022-12-18T14:28:59;58.50;;;18.40;;
66559;SDS011;53413;49.878;8.142;2022-12-18T14:31:42;56.40;;;18.30;;
66559;SDS011;53413;49.878;8.142;2022-12-18T14:34:08;58.63;;;18.70;;
66559;SDS011;53413;49.878;8.142;2022-12-18T14:36:40;58.83;;;18.10;;
66559;SDS011;53413;49.878;8.142;2022-12-18T14:39:05;57.37;;;18.83;;
66559;SDS011;53413;49.878;8.142;2022-12-18T14:41:30;62.33;;;18.93;;
66559;SDS011;53413;49.878;8.142;2022-12-18T14:44:04;58.78;;;18.40;;
66559;SDS011;53413;49.878;8.142;2022-12-18T14:49:21;58.75;;;18.45;;
66559;SDS011;53413;49.878;8.142;2022-12-18T14:51:48;60.75;;;18.52;;
66559;SDS011;53413;49.878;8.142;2022-12-18T14:54:16;55.63;;;18.60;;
66559;SDS011;53413;49.878;8.142;2022-12-18T14:56:44;65.72;;;19.38;;
66559;SDS011;53413;49.878;8.142;2022-12-18T14:59:16;60.50;;;19.03;;
66559;SDS011;53413;49.878;8.142;2022-12-18T15:01:53;62.17;;;19.23;;
66559;SDS011;53413;49.878;8.142;2022-12-18T15:07:05;57.42;;;18.27;;
66559;SDS011;53413;49.878;8.142;2022-12-18T15:09:36;59.70;;;17.48;;
66559;SDS011;53413;49.878;8.142;2022-12-18T15:12:03;60.33;;;20.13;;
66559;SDS011;53413;49.878;8.142;2022-12-18T15:17:06;64.35;;;20.23;;
66559;SDS011;53413;49.878;8.142;2022-12-18T15:19:42;67.35;;;19.15;;
66559;SDS011;53413;49.878;8.142;2022-12-18T15:24:44;59.77;;;19.03;;
66559;SDS011;53413;49.878;8.142;2022-12-18T15:30:38;59.63;;;18.80;;
66559;SDS011;53413;49.878;8.142;2022-12-18T15:32:46;55.25;;;17.40;;
66559;SDS011;53413;49.878;8.142;2022-12-18T15:35:16;64.85;;;19.17;;
66559;SDS011;53413;49.878;8.142;2022-12-18T15:37:44;62.85;;;19.98;;
66559;SDS011;53413;49.878;8.142;2022-12-18T15:40:13;60.40;;;19.70;;
66559;SDS011;53413;49.878;8.142;2022-12-18T15:42:40;66.63;;;19.27;;
66559;SDS011;53413;49.878;8.142;2022-12-18T15:45:25;64.88;;;19.70;;
66559;SDS011;53413;49.878;8.142;2022-12-18T15:47:50;63.67;;;21.53;;
66559;SDS011;53413;49.878;8.142;2022-12-18T15:50:15;60.20;;;19.43;;
66559;SDS011;53413;49.878;8.142;2022-12-18T15:52:41;57.03;;;17.43;;
66559;SDS011;53413;49.878;8.142;2022-12-18T15:55:10;63.05;;;19.00;;
66559;SDS011;53413;49.878;8.142;2022-12-18T15:57:55;60.97;;;18.05;;
66559;SDS011;53413;49.878;8.142;2022-12-18T16:00:21;59.80;;;16.97;;
66559;SDS011;53413;49.878;8.142;2022-12-18T16:02:46;55.90;;;16.90;;
66559;SDS011;53413;49.878;8.142;2022-12-18T16:05:13;61.93;;;18.80;;
66559;SDS011;53413;49.878;8.142;2022-12-18T16:07:40;61.22;;;17.40;;
66559;SDS011;53413;49.878;8.142;2022-12-18T16:10:05;55.27;;;16.80;;
66559;SDS011;53413;49.878;8.142;2022-12-18T16:12:31;66.85;;;19.17;;
66559;SDS011;53413;49.878;8.142;2022-12-18T16:14:56;63.80;;;18.83;;
66559;SDS011;53413;49.878;8.142;2022-12-18T16:17:22;53.33;;;16.30;;
66559;SDS011;53413;49.878;8.142;2022-12-18T16:19:47;57.77;;;16.97;;
66559;SDS011;53413;49.878;8.142;2022-12-18T16:22:23;55.13;;;17.83;;
66559;SDS011;53413;49.878;8.142;2022-12-18T16:24:51;60.60;;;18.50;;
66559;SDS011;53413;49.878;8.142;2022-12-18T16:27:19;63.83;;;19.33;;
66559;SDS011;53413;49.878;8.142;2022-12-18T16:29:45;64.63;;;18.15;;
66559;SDS011;53413;49.878;8.142;2022-12-18T16:32:13;65.03;;;20.87;;
66559;SDS011;53413;49.878;8.142;2022-12-18T16:34:43;60.10;;;18.23;;
66559;SDS011;53413;49.878;8.142;2022-12-18T16:37:09;65.28;;;17.90;;
66559;SDS011;53413;49.878;8.142;2022-12-18T16:39:37;57.88;;;16.92;;
66559;SDS011;53413;49.878;8.142;2022-12-18T16:42:13;61.20;;;17.10;;
66559;SDS011;53413;49.878;8.142;2022-12-18T16:44:44;59.72;;;17.40;;
66559;SDS011;53413;49.878;8.142;2022-12-18T16:47:10;60.75;;;18.38;;
66559;SDS011;53413;49.878;8.142;2022-12-18T16:49:37;56.78;;;17.38;;
66559;SDS011;53413;49.878;8.142;2022-12-18T16:52:03;56.73;;;16.60;;
66559;SDS011;53413;49.878;8.142;2022-12-18T16:54:32;58.92;;;17.02;;